sensor_id;sensor_type;location;lat;lon;timestamp;P1;durP1;ratioP1;P2;durP2;ratioP2
31808;SDS011;18379;48.208;-1.518;2022-11-02T00:03:05;42.63;;;38.57;;
31808;SDS011;18379;48.208;-1.518;2022-11-02T00:08:06;47.73;;;43.07;;
31808;SDS011;18379;48.208;-1.518;2022-11-02T00:13:07;44.83;;;40.40;;
31808;SDS011;18379;48.208;-1.518;2022-11-02T00:18:08;42.90;;;38.90;;
31808;SDS011;18379;48.208;-1.518;2022-11-02T00:23:10;44.07;;;39.73;;
31808;SDS011;18379;48.208;-1.518;2022-11-02T00:28:13;42.77;;;38.67;;
31808;SDS011;18379;48.208;-1.518;2022-11-02T00:33:14;46.73;;;39.57;;
31808;SDS011;18379;48.208;-1.518;2022-11-02T00:38:15;43.77;;;39.73;;
31808;SDS011;18379;48.208;-1.518;2022-11-02T00:43:16;43.90;;;39.73;;
31808;SDS011;18379;48.208;-1.518;2022-11-02T00:48:17;44.90;;;40.43;;
31808;SDS011;18379;48.208;-1.518;2022-11-02T00:53:18;45.97;;;41.03;;
31808;SDS011;18379;48.208;-1.518;2022-11-02T00:58:19;45.63;;;41.20;;
31808;SDS011;18379;48.208;-1.518;2022-11-02T01:03:20;45.00;;;40.90;;
31808;SDS011;18379;48.208;-1.518;2022-11-02T01:08:21;48.30;;;42.47;;
31808;SDS011;18379;48.208;-1.518;2022-11-02T01:13:22;45.67;;;41.03;;
31808;SDS011;18379;48.208;-1.518;2022-11-02T01:18:23;50.47;;;43.27;;
31808;SDS011;18379;48.208;-1.518;2022-11-02T01:23:23;46.13;;;41.63;;
31808;SDS011;18379;48.208;-1.518;2022-11-02T01:28:27;46.30;;;41.57;;
31808;SDS011;18379;48.208;-1.518;2022-11-02T01:33:28;44.50;;;40.33;;
31808;SDS011;18379;48.208;-1.518;2022-11-02T01:38:29;45.60;;;40.97;;
31808;SDS011;18379;48.208;-1.518;2022-11-02T01:48:36;44.13;;;39.60;;
31808;SDS011;18379;48.208;-1.518;2022-11-02T01:53:50;45.33;;;40.93;;
31808;SDS011;18379;48.208;-1.518;2022-11-02T01:58:56;46.93;;;41.20;;
31808;SDS011;18379;48.208;-1.518;2022-11-02T02:04:00;45.30;;;40.70;;
31808;SDS011;18379;48.208;-1.518;2022-11-02T02:09:02;43.47;;;38.93;;
31808;SDS011;18379;48.208;-1.518;2022-11-02T02:14:15;43.27;;;38.63;;
31808;SDS011;18379;48.208;-1.518;2022-11-02T02:19:22;44.90;;;40.67;;
31808;SDS011;18379;48.208;-1.518;2022-11-02T02:24:50;48.03;;;41.43;;
31808;SDS011;18379;48.208;-1.518;2022-11-02T02:29:58;45.23;;;40.53;;
31808;SDS011;18379;48.208;-1.518;2022-11-02T02:35:14;42.20;;;38.47;;
31808;SDS011;18379;48.208;-1.518;2022-11-02T02:40:29;48.87;;;43.87;;
31808;SDS011;18379;48.208;-1.518;2022-11-02T02:45:45;43.97;;;39.37;;
31808;SDS011;18379;48.208;-1.518;2022-11-02T02:50:58;44.93;;;40.83;;
31808;SDS011;18379;48.208;-1.518;2022-11-02T02:56:05;41.03;;;37.70;;
31808;SDS011;18379;48.208;-1.518;2022-11-02T03:01:10;44.30;;;39.87;;
31808;SDS011;18379;48.208;-1.518;2022-11-02T03:06:27;42.23;;;38.30;;
31808;SDS011;18379;48.208;-1.518;2022-11-02T03:11:31;45.40;;;40.53;;
31808;SDS011;18379;48.208;-1.518;2022-11-02T03:16:56;41.93;;;38.17;;
31808;SDS011;18379;48.208;-1.518;2022-11-02T03:22:16;44.47;;;38.17;;
31808;SDS011;18379;48.208;-1.518;2022-11-02T03:27:25;45.60;;;40.83;;
31808;SDS011;18379;48.208;-1.518;2022-11-02T03:33:04;45.80;;;41.30;;
31808;SDS011;18379;48.208;-1.518;2022-11-02T03:38:18;41.07;;;37.13;;
31808;SDS011;18379;48.208;-1.518;2022-11-02T03:43:24;44.40;;;39.87;;
31808;SDS011;18379;48.208;-1.518;2022-11-02T03:48:27;46.43;;;41.63;;
31808;SDS011;18379;48.208;-1.518;2022-11-02T03:53:33;51.97;;;46.70;;
31808;SDS011;18379;48.208;-1.518;2022-11-02T03:58:57;46.53;;;42.47;;
31808;SDS011;18379;48.208;-1.518;2022-11-02T04:03:58;48.30;;;43.67;;
31808;SDS011;18379;48.208;-1.518;2022-11-02T04:08:59;44.10;;;40.30;;
31808;SDS011;18379;48.208;-1.518;2022-11-02T04:14:00;43.73;;;39.87;;
31808;SDS011;18379;48.208;-1.518;2022-11-02T04:19:19;44.37;;;39.90;;
31808;SDS011;18379;48.208;-1.518;2022-11-02T04:24:29;44.10;;;39.30;;
31808;SDS011;18379;48.208;-1.518;2022-11-02T04:29:48;43.03;;;38.90;;
31808;SDS011;18379;48.208;-1.518;2022-11-02T04:34:49;43.93;;;39.67;;
31808;SDS011;18379;48.208;-1.518;2022-11-02T04:39:50;44.07;;;39.63;;
31808;SDS011;18379;48.208;-1.518;2022-11-02T04:44:51;44.30;;;40.23;;
31808;SDS011;18379;48.208;-1.518;2022-11-02T04:49:51;47.00;;;41.67;;
31808;SDS011;18379;48.208;-1.518;2022-11-02T04:54:52;44.50;;;40.67;;
31808;SDS011;18379;48.208;-1.518;2022-11-02T04:59:53;46.23;;;41.33;;
31808;SDS011;18379;48.208;-1.518;2022-11-02T05:04:54;44.00;;;39.83;;
31808;SDS011;18379;48.208;-1.518;2022-11-02T05:09:54;42.20;;;38.30;;
31808;SDS011;18379;48.208;-1.518;2022-11-02T05:14:55;44.10;;;40.20;;
31808;SDS011;18379;48.208;-1.518;2022-11-02T05:19:56;43.53;;;39.37;;
31808;SDS011;18379;48.208;-1.518;2022-11-02T05:24:57;44.30;;;39.67;;
31808;SDS011;18379;48.208;-1.518;2022-11-02T05:29:58;42.83;;;38.77;;
31808;SDS011;18379;48.208;-1.518;2022-11-02T05:34:59;42.40;;;38.60;;
31808;SDS011;18379;48.208;-1.518;2022-11-02T05:40:00;46.03;;;41.67;;
31808;SDS011;18379;48.208;-1.518;2022-11-02T05:45:00;42.73;;;38.80;;
31808;SDS011;18379;48.208;-1.518;2022-11-02T05:50:01;44.00;;;39.77;;
31808;SDS011;18379;48.208;-1.518;2022-11-02T05:55:02;41.47;;;37.87;;
31808;SDS011;18379;48.208;-1.518;2022-11-02T06:00:04;42.27;;;38.67;;
31808;SDS011;18379;48.208;-1.518;2022-11-02T06:05:06;47.60;;;43.17;;
31808;SDS011;18379;48.208;-1.518;2022-11-02T06:10:07;44.13;;;40.43;;
31808;SDS011;18379;48.208;-1.518;2022-11-02T06:15:08;40.70;;;36.73;;
31808;SDS011;18379;48.208;-1.518;2022-11-02T06:20:09;41.40;;;37.93;;
31808;SDS011;18379;48.208;-1.518;2022-11-02T06:25:10;40.70;;;36.77;;
31808;SDS011;18379;48.208;-1.518;2022-11-02T06:30:12;45.37;;;40.40;;
31808;SDS011;18379;48.208;-1.518;2022-11-02T06:35:13;38.57;;;35.67;;
31808;SDS011;18379;48.208;-1.518;2022-11-02T06:40:14;39.63;;;36.23;;
31808;SDS011;18379;48.208;-1.518;2022-11-02T06:45:15;39.63;;;35.87;;
31808;SDS011;18379;48.208;-1.518;2022-11-02T06:50:16;39.03;;;35.70;;
31808;SDS011;18379;48.208;-1.518;2022-11-02T06:55:17;38.90;;;35.27;;
31808;SDS011;18379;48.208;-1.518;2022-11-02T07:00:18;38.43;;;35.30;;
31808;SDS011;18379;48.208;-1.518;2022-11-02T07:05:20;38.53;;;35.57;;
31808;SDS011;18379;48.208;-1.518;2022-11-02T07:10:21;40.53;;;36.90;;
31808;SDS011;18379;48.208;-1.518;2022-11-02T07:15:23;37.40;;;34.70;;
31808;SDS011;18379;48.208;-1.518;2022-11-02T07:20:25;40.17;;;37.00;;
31808;SDS011;18379;48.208;-1.518;2022-11-02T07:25:32;42.97;;;38.60;;
31808;SDS011;18379;48.208;-1.518;2022-11-02T07:30:33;38.23;;;35.27;;
31808;SDS011;18379;48.208;-1.518;2022-11-02T07:35:34;42.23;;;38.20;;
31808;SDS011;18379;48.208;-1.518;2022-11-02T07:40:35;44.60;;;40.70;;
31808;SDS011;18379;48.208;-1.518;2022-11-02T07:45:38;43.07;;;39.03;;
31808;SDS011;18379;48.208;-1.518;2022-11-02T07:50:38;41.03;;;37.40;;
31808;SDS011;18379;48.208;-1.518;2022-11-02T07:55:40;42.80;;;38.63;;
31808;SDS011;18379;48.208;-1.518;2022-11-02T08:00:41;43.53;;;39.17;;
31808;SDS011;18379;48.208;-1.518;2022-11-02T08:05:42;42.30;;;38.20;;
31808;SDS011;18379;48.208;-1.518;2022-11-02T08:10:43;41.93;;;37.53;;
31808;SDS011;18379;48.208;-1.518;2022-11-02T08:15:49;41.67;;;37.60;;
31808;SDS011;18379;48.208;-1.518;2022-11-02T08:20:51;40.17;;;36.37;;
31808;SDS011;18379;48.208;-1.518;2022-11-02T08:25:53;40.40;;;36.60;;
31808;SDS011;18379;48.208;-1.518;2022-11-02T08:30:57;43.57;;;39.20;;
31808;SDS011;18379;48.208;-1.518;2022-11-02T08:36:02;45.03;;;40.90;;
31808;SDS011;18379;48.208;-1.518;2022-11-02T08:41:04;47.13;;;43.07;;
31808;SDS011;18379;48.208;-1.518;2022-11-02T08:46:05;45.73;;;40.93;;
31808;SDS011;18379;48.208;-1.518;2022-11-02T08:51:06;43.83;;;39.17;;
31808;SDS011;18379;48.208;-1.518;2022-11-02T08:56:08;58.43;;;52.70;;
31808;SDS011;18379;48.208;-1.518;2022-11-02T09:01:08;56.50;;;50.50;;
31808;SDS011;18379;48.208;-1.518;2022-11-02T09:06:09;56.23;;;50.27;;
31808;SDS011;18379;48.208;-1.518;2022-11-02T09:11:10;57.20;;;51.87;;
31808;SDS011;18379;48.208;-1.518;2022-11-02T09:16:11;58.00;;;52.40;;
31808;SDS011;18379;48.208;-1.518;2022-11-02T09:21:12;50.30;;;45.73;;
31808;SDS011;18379;48.208;-1.518;2022-11-02T09:26:13;52.20;;;47.13;;
31808;SDS011;18379;48.208;-1.518;2022-11-02T09:31:14;45.37;;;41.33;;
31808;SDS011;18379;48.208;-1.518;2022-11-02T09:36:15;45.70;;;41.83;;
31808;SDS011;18379;48.208;-1.518;2022-11-02T09:41:21;48.10;;;43.00;;
31808;SDS011;18379;48.208;-1.518;2022-11-02T09:46:34;59.30;;;53.33;;
31808;SDS011;18379;48.208;-1.518;2022-11-02T09:51:37;59.80;;;53.87;;
31808;SDS011;18379;48.208;-1.518;2022-11-02T09:56:43;54.80;;;49.30;;
31808;SDS011;18379;48.208;-1.518;2022-11-02T10:07:26;47.33;;;43.20;;
31808;SDS011;18379;48.208;-1.518;2022-11-02T10:18:08;57.83;;;52.17;;
31808;SDS011;18379;48.208;-1.518;2022-11-02T10:23:20;46.27;;;42.37;;
31808;SDS011;18379;48.208;-1.518;2022-11-02T10:28:40;58.97;;;53.20;;
31808;SDS011;18379;48.208;-1.518;2022-11-02T10:33:45;47.37;;;42.50;;
31808;SDS011;18379;48.208;-1.518;2022-11-02T10:39:05;48.53;;;44.27;;
31808;SDS011;18379;48.208;-1.518;2022-11-02T11:01:00;46.17;;;42.50;;
31808;SDS011;18379;48.208;-1.518;2022-11-02T11:06:07;60.20;;;54.73;;
31808;SDS011;18379;48.208;-1.518;2022-11-02T11:11:24;60.00;;;54.87;;
31808;SDS011;18379;48.208;-1.518;2022-11-02T11:16:38;52.67;;;47.83;;
31808;SDS011;18379;48.208;-1.518;2022-11-02T11:21:40;52.90;;;47.83;;
31808;SDS011;18379;48.208;-1.518;2022-11-02T11:26:42;51.53;;;47.00;;
31808;SDS011;18379;48.208;-1.518;2022-11-02T11:31:42;49.87;;;45.43;;
31808;SDS011;18379;48.208;-1.518;2022-11-02T11:36:43;53.07;;;48.47;;
31808;SDS011;18379;48.208;-1.518;2022-11-02T11:41:44;50.50;;;46.03;;
31808;SDS011;18379;48.208;-1.518;2022-11-02T11:46:45;49.20;;;44.60;;
31808;SDS011;18379;48.208;-1.518;2022-11-02T11:51:50;49.33;;;45.17;;
31808;SDS011;18379;48.208;-1.518;2022-11-02T12:02:20;49.60;;;45.60;;
31808;SDS011;18379;48.208;-1.518;2022-11-02T12:12:33;50.70;;;46.50;;
31808;SDS011;18379;48.208;-1.518;2022-11-02T12:18:05;48.13;;;44.17;;
31808;SDS011;18379;48.208;-1.518;2022-11-02T12:28:53;48.93;;;44.63;;
31808;SDS011;18379;48.208;-1.518;2022-11-02T12:55:04;50.23;;;46.00;;
31808;SDS011;18379;48.208;-1.518;2022-11-02T13:00:21;48.83;;;44.50;;
31808;SDS011;18379;48.208;-1.518;2022-11-02T13:05:24;47.97;;;43.80;;
31808;SDS011;18379;48.208;-1.518;2022-11-02T13:10:39;51.37;;;47.07;;
31808;SDS011;18379;48.208;-1.518;2022-11-02T13:15:44;49.57;;;45.67;;
31808;SDS011;18379;48.208;-1.518;2022-11-02T13:20:51;47.13;;;43.33;;
31808;SDS011;18379;48.208;-1.518;2022-11-02T13:26:00;46.27;;;42.70;;
31808;SDS011;18379;48.208;-1.518;2022-11-02T13:31:03;50.13;;;46.03;;
31808;SDS011;18379;48.208;-1.518;2022-11-02T13:36:09;48.13;;;44.63;;
31808;SDS011;18379;48.208;-1.518;2022-11-02T13:52:08;52.10;;;47.53;;
31808;SDS011;18379;48.208;-1.518;2022-11-02T13:57:20;46.37;;;42.80;;
31808;SDS011;18379;48.208;-1.518;2022-11-02T14:02:32;48.40;;;44.83;;
31808;SDS011;18379;48.208;-1.518;2022-11-02T14:07:39;48.60;;;44.93;;
31808;SDS011;18379;48.208;-1.518;2022-11-02T14:12:42;51.57;;;47.43;;
31808;SDS011;18379;48.208;-1.518;2022-11-02T14:18:29;47.20;;;43.67;;
31808;SDS011;18379;48.208;-1.518;2022-11-02T14:28:31;47.67;;;43.83;;
31808;SDS011;18379;48.208;-1.518;2022-11-02T14:39:39;46.73;;;42.90;;
31808;SDS011;18379;48.208;-1.518;2022-11-02T14:49:35;50.07;;;45.80;;
31808;SDS011;18379;48.208;-1.518;2022-11-02T14:54:45;51.63;;;47.23;;
31808;SDS011;18379;48.208;-1.518;2022-11-02T14:59:50;46.93;;;43.13;;
31808;SDS011;18379;48.208;-1.518;2022-11-02T15:04:55;47.07;;;42.87;;
31808;SDS011;18379;48.208;-1.518;2022-11-02T15:09:59;49.30;;;45.40;;
31808;SDS011;18379;48.208;-1.518;2022-11-02T15:30:28;49.33;;;44.97;;
31808;SDS011;18379;48.208;-1.518;2022-11-02T15:35:32;55.40;;;50.37;;
31808;SDS011;18379;48.208;-1.518;2022-11-02T16:01:45;46.97;;;43.20;;
31808;SDS011;18379;48.208;-1.518;2022-11-02T16:07:04;54.93;;;50.23;;
31808;SDS011;18379;48.208;-1.518;2022-11-02T16:17:18;50.80;;;46.53;;
31808;SDS011;18379;48.208;-1.518;2022-11-02T16:22:24;46.80;;;42.67;;
31808;SDS011;18379;48.208;-1.518;2022-11-02T16:27:26;47.50;;;43.10;;
31808;SDS011;18379;48.208;-1.518;2022-11-02T16:32:27;47.90;;;43.63;;
31808;SDS011;18379;48.208;-1.518;2022-11-02T16:37:28;48.63;;;44.60;;
31808;SDS011;18379;48.208;-1.518;2022-11-02T16:42:29;53.77;;;49.10;;
31808;SDS011;18379;48.208;-1.518;2022-11-02T16:47:34;50.67;;;46.17;;
31808;SDS011;18379;48.208;-1.518;2022-11-02T16:52:38;48.90;;;44.70;;
31808;SDS011;18379;48.208;-1.518;2022-11-02T16:57:43;60.73;;;54.90;;
31808;SDS011;18379;48.208;-1.518;2022-11-02T17:02:45;48.27;;;44.47;;
31808;SDS011;18379;48.208;-1.518;2022-11-02T17:07:55;45.80;;;41.90;;
31808;SDS011;18379;48.208;-1.518;2022-11-02T17:13:04;53.93;;;48.97;;
31808;SDS011;18379;48.208;-1.518;2022-11-02T17:18:13;49.00;;;44.73;;
31808;SDS011;18379;48.208;-1.518;2022-11-02T17:33:41;51.70;;;47.23;;
31808;SDS011;18379;48.208;-1.518;2022-11-02T17:38:43;54.60;;;49.10;;
31808;SDS011;18379;48.208;-1.518;2022-11-02T17:43:43;50.53;;;45.53;;
31808;SDS011;18379;48.208;-1.518;2022-11-02T17:48:44;51.57;;;46.53;;
31808;SDS011;18379;48.208;-1.518;2022-11-02T17:53:47;48.83;;;44.17;;
31808;SDS011;18379;48.208;-1.518;2022-11-02T17:58:48;47.40;;;42.90;;
31808;SDS011;18379;48.208;-1.518;2022-11-02T18:03:49;47.47;;;42.73;;
31808;SDS011;18379;48.208;-1.518;2022-11-02T18:08:50;46.27;;;42.10;;
31808;SDS011;18379;48.208;-1.518;2022-11-02T18:14:13;51.03;;;46.37;;
31808;SDS011;18379;48.208;-1.518;2022-11-02T18:19:18;48.90;;;44.57;;
31808;SDS011;18379;48.208;-1.518;2022-11-02T18:24:19;46.33;;;42.57;;
31808;SDS011;18379;48.208;-1.518;2022-11-02T18:29:19;47.77;;;43.33;;
31808;SDS011;18379;48.208;-1.518;2022-11-02T18:34:20;48.87;;;44.10;;
31808;SDS011;18379;48.208;-1.518;2022-11-02T18:39:21;46.00;;;42.03;;
31808;SDS011;18379;48.208;-1.518;2022-11-02T18:44:22;47.37;;;42.67;;
31808;SDS011;18379;48.208;-1.518;2022-11-02T18:49:23;46.63;;;42.67;;
31808;SDS011;18379;48.208;-1.518;2022-11-02T18:54:25;47.27;;;43.27;;
31808;SDS011;18379;48.208;-1.518;2022-11-02T18:59:25;47.30;;;42.90;;
31808;SDS011;18379;48.208;-1.518;2022-11-02T19:04:27;48.27;;;43.57;;
31808;SDS011;18379;48.208;-1.518;2022-11-02T19:09:27;50.10;;;45.03;;
31808;SDS011;18379;48.208;-1.518;2022-11-02T19:19:35;51.47;;;46.97;;
31808;SDS011;18379;48.208;-1.518;2022-11-02T19:24:36;51.23;;;46.57;;
31808;SDS011;18379;48.208;-1.518;2022-11-02T19:29:37;53.50;;;48.37;;
31808;SDS011;18379;48.208;-1.518;2022-11-02T19:34:38;51.37;;;47.17;;
31808;SDS011;18379;48.208;-1.518;2022-11-02T19:39:39;53.70;;;49.20;;
31808;SDS011;18379;48.208;-1.518;2022-11-02T19:44:40;50.47;;;45.97;;
31808;SDS011;18379;48.208;-1.518;2022-11-02T19:49:41;49.83;;;45.40;;
31808;SDS011;18379;48.208;-1.518;2022-11-02T19:54:42;50.83;;;46.20;;
31808;SDS011;18379;48.208;-1.518;2022-11-02T19:59:45;51.70;;;46.93;;
31808;SDS011;18379;48.208;-1.518;2022-11-02T20:04:46;50.17;;;45.67;;
31808;SDS011;18379;48.208;-1.518;2022-11-02T20:09:48;49.43;;;45.03;;
31808;SDS011;18379;48.208;-1.518;2022-11-02T20:14:49;50.03;;;45.70;;
31808;SDS011;18379;48.208;-1.518;2022-11-02T20:19:50;49.53;;;45.17;;
31808;SDS011;18379;48.208;-1.518;2022-11-02T20:24:51;50.20;;;45.93;;
31808;SDS011;18379;48.208;-1.518;2022-11-02T20:29:53;48.47;;;44.77;;
31808;SDS011;18379;48.208;-1.518;2022-11-02T20:34:54;49.37;;;45.00;;
31808;SDS011;18379;48.208;-1.518;2022-11-02T20:39:55;48.83;;;44.73;;
31808;SDS011;18379;48.208;-1.518;2022-11-02T20:44:56;50.80;;;46.63;;
31808;SDS011;18379;48.208;-1.518;2022-11-02T20:49:56;50.97;;;46.23;;
31808;SDS011;18379;48.208;-1.518;2022-11-02T20:54:57;48.50;;;44.47;;
31808;SDS011;18379;48.208;-1.518;2022-11-02T20:59:58;49.30;;;45.10;;
31808;SDS011;18379;48.208;-1.518;2022-11-02T21:04:59;48.23;;;44.53;;
31808;SDS011;18379;48.208;-1.518;2022-11-02T21:10:00;48.63;;;44.77;;
31808;SDS011;18379;48.208;-1.518;2022-11-02T21:15:01;46.27;;;42.60;;
31808;SDS011;18379;48.208;-1.518;2022-11-02T21:20:02;48.47;;;44.33;;
31808;SDS011;18379;48.208;-1.518;2022-11-02T21:25:04;45.07;;;41.43;;
31808;SDS011;18379;48.208;-1.518;2022-11-02T21:30:05;44.30;;;41.03;;
31808;SDS011;18379;48.208;-1.518;2022-11-02T21:35:07;47.17;;;42.70;;
31808;SDS011;18379;48.208;-1.518;2022-11-02T21:40:08;45.40;;;41.70;;
31808;SDS011;18379;48.208;-1.518;2022-11-02T21:45:09;44.60;;;41.40;;
31808;SDS011;18379;48.208;-1.518;2022-11-02T21:50:10;46.37;;;42.23;;
31808;SDS011;18379;48.208;-1.518;2022-11-02T21:55:12;45.07;;;41.40;;
31808;SDS011;18379;48.208;-1.518;2022-11-02T22:00:13;44.50;;;41.27;;
31808;SDS011;18379;48.208;-1.518;2022-11-02T22:05:14;47.43;;;43.20;;
31808;SDS011;18379;48.208;-1.518;2022-11-02T22:10:35;43.50;;;40.20;;
31808;SDS011;18379;48.208;-1.518;2022-11-02T22:15:35;45.30;;;41.47;;
31808;SDS011;18379;48.208;-1.518;2022-11-02T22:20:36;44.30;;;41.10;;
31808;SDS011;18379;48.208;-1.518;2022-11-02T22:25:37;45.27;;;41.37;;
31808;SDS011;18379;48.208;-1.518;2022-11-02T22:30:38;43.87;;;40.67;;
31808;SDS011;18379;48.208;-1.518;2022-11-02T22:35:38;45.27;;;41.23;;
31808;SDS011;18379;48.208;-1.518;2022-11-02T22:40:39;44.50;;;40.70;;
31808;SDS011;18379;48.208;-1.518;2022-11-02T22:45:40;44.30;;;41.27;;
31808;SDS011;18379;48.208;-1.518;2022-11-02T22:50:42;45.13;;;41.33;;
31808;SDS011;18379;48.208;-1.518;2022-11-02T22:55:43;44.03;;;40.60;;
31808;SDS011;18379;48.208;-1.518;2022-11-02T23:00:44;45.60;;;42.10;;
31808;SDS011;18379;48.208;-1.518;2022-11-02T23:05:45;45.90;;;42.40;;
31808;SDS011;18379;48.208;-1.518;2022-11-02T23:10:46;46.43;;;42.67;;
31808;SDS011;18379;48.208;-1.518;2022-11-02T23:16:11;44.17;;;41.00;;
31808;SDS011;18379;48.208;-1.518;2022-11-02T23:21:21;47.47;;;43.30;;
31808;SDS011;18379;48.208;-1.518;2022-11-02T23:26:22;50.10;;;46.07;;
31808;SDS011;18379;48.208;-1.518;2022-11-02T23:31:23;46.33;;;42.83;;
31808;SDS011;18379;48.208;-1.518;2022-11-02T23:36:42;45.03;;;41.50;;
31808;SDS011;18379;48.208;-1.518;2022-11-02T23:41:43;44.90;;;41.03;;
31808;SDS011;18379;48.208;-1.518;2022-11-02T23:46:44;45.00;;;41.53;;
31808;SDS011;18379;48.208;-1.518;2022-11-02T23:51:49;46.00;;;42.80;;
31808;SDS011;18379;48.208;-1.518;2022-11-02T23:57:09;43.27;;;40.17;;
